This is the latest recevied weather packets stored in our database for station/object K7LDN-13. If no packets are shown the sender has not sent any weather packets the latest 10 day(s).
| Time | Temp. | Humidity | Pressure | Rain* | Wind** | Luminosity | Snow |
|---|---|---|---|---|---|---|---|
| 1777803160 | 12.78° C | 44% | 1019 hPa | 0 mm | - | 0 W/m² | - |
| 1777802856 | 12.22° C | 43% | 1019.1 hPa | 0 mm | - | 0 W/m² | - |
| 1777802555 | 11.67° C | 38% | 1018.9 hPa | 0 mm | - | 0 W/m² | - |
| 1777802252 | 11.11° C | 39% | 1019.1 hPa | 0 mm | - | 0 W/m² | - |
| 1777801951 | 10° C | 42% | 1018.8 hPa | 0 mm | - | 0 W/m² | - |
| 1777801647 | 10° C | 44% | 1019 hPa | 0 mm | - | 0 W/m² | - |
| 1777801345 | 10° C | 42% | 1019.1 hPa | 0 mm | - | 0 W/m² | - |
| 1777801041 | 10.56° C | 41% | 1018.9 hPa | 0 mm | - | 0 W/m² | - |
| 1777800737 | 10.56° C | 41% | 1019.1 hPa | 0 mm | - | 0 W/m² | - |
| 1777800432 | 12.22° C | 38% | 1019.1 hPa | 0 mm | - | 0 W/m² | - |
| 1777800130 | 12.78° C | 36% | 1019 hPa | 0 mm | - | 0 W/m² | - |
| 1777799825 | 12.78° C | 36% | 1019 hPa | 0 mm | - | 0 W/m² | - |
| 1777799523 | 12.78° C | 36% | 1019.1 hPa | 0 mm | - | 0 W/m² | - |
| 1777799218 | 12.78° C | 35% | 1018.8 hPa | 0 mm | - | 0 W/m² | - |
| 1777798914 | 12.78° C | 34% | 1019 hPa | 0 mm | - | 0 W/m² | - |
| 1777798610 | 12.78° C | 33% | 1019.3 hPa | 0 mm | - | 0 W/m² | - |
| 1777798308 | 12.78° C | 33% | 1019 hPa | 0 mm | - | 0 W/m² | - |
| 1777798003 | 12.78° C | 33% | 1019.3 hPa | 0 mm | - | 0 W/m² | - |
| 1777797702 | 12.22° C | 35% | 1019 hPa | 0 mm | - | 0 W/m² | - |
| 1777797399 | 11.11° C | 39% | 1019.1 hPa | 0 mm | - | 0 W/m² | - |
| 1777797096 | 10.56° C | 44% | 1019.3 hPa | 0 mm | - | 0 W/m² | - |
| 1777796793 | 11.11° C | 41% | 1019.4 hPa | 0 mm | - | 0 W/m² | - |
| 1777796490 | 11.67° C | 40% | 1019.3 hPa | 0 mm | - | 0 W/m² | - |
| 1777796190 | 11.67° C | 39% | 1019.1 hPa | 0 mm | - | 0 W/m² | - |
| 1777795887 | 11.67° C | 38% | 1019.4 hPa | 0 mm | - | 0 W/m² | - |
* Rain latest hour (hover to see other rain measurements)
** Current wind speed in m/s (hover to see current wind gust speed)